createdAt,value
2023-04-18T00:00:29.272Z,6.78
2023-04-18T00:02:55.998Z,6.59
2023-04-18T00:05:23.110Z,6.48
2023-04-18T00:07:49.687Z,6.59
2023-04-18T00:10:16.810Z,6.90
2023-04-18T00:12:43.331Z,6.79
2023-04-18T00:15:10.062Z,6.64
2023-04-18T00:17:39.725Z,6.61
2023-04-18T00:20:10.663Z,6.58
2023-04-18T00:22:42.896Z,6.54
2023-04-18T00:25:10.432Z,6.53
2023-04-18T00:27:38.485Z,6.61
2023-04-18T00:30:06.749Z,6.54
2023-04-18T00:32:33.323Z,6.52
2023-04-18T00:34:59.973Z,6.53
2023-04-18T00:37:27.120Z,6.44
2023-04-18T00:39:54.031Z,6.36
2023-04-18T00:42:21.885Z,6.34
2023-04-18T00:44:48.934Z,6.41
2023-04-18T00:47:19.249Z,6.45
2023-04-18T00:49:47.945Z,6.60
2023-04-18T00:52:16.687Z,6.53
2023-04-18T00:54:44.710Z,6.46
2023-04-18T00:57:12.316Z,6.55
2023-04-18T00:59:39.213Z,6.48
2023-04-18T01:02:07.692Z,6.42
2023-04-18T01:04:34.346Z,6.38
2023-04-18T01:07:02.260Z,6.45
2023-04-18T01:09:29.366Z,6.41
2023-04-18T01:11:56.128Z,6.31
2023-04-18T01:14:22.782Z,6.19
2023-04-18T01:16:49.350Z,6.15
2023-04-18T01:19:17.754Z,6.14
2023-04-18T01:21:44.199Z,6.09
2023-04-18T01:24:15.539Z,6.28
2023-04-18T01:26:44.074Z,6.12
2023-04-18T01:29:11.290Z,5.95
2023-04-18T01:31:38.650Z,6.01
2023-04-18T01:34:07.402Z,5.91
2023-04-18T01:36:34.898Z,5.89
2023-04-18T01:39:02.098Z,5.84
2023-04-18T01:41:32.292Z,5.77
2023-04-18T01:43:59.811Z,5.85
2023-04-18T01:46:26.730Z,5.82
2023-04-18T01:48:53.932Z,5.79
2023-04-18T01:51:21.464Z,5.74
2023-04-18T01:53:47.994Z,5.66
2023-04-18T01:56:14.413Z,5.63
2023-04-18T01:58:41.699Z,5.61
2023-04-18T02:01:08.575Z,5.60
2023-04-18T02:03:35.448Z,5.59
2023-04-18T02:06:04.074Z,5.75
2023-04-18T02:08:32.916Z,5.70
2023-04-18T02:11:01.022Z,5.63
2023-04-18T02:13:28.074Z,5.78
2023-04-18T02:15:54.540Z,5.91
2023-04-18T02:18:22.038Z,5.95
2023-04-18T02:20:48.839Z,5.91
2023-04-18T02:23:15.458Z,6.01
2023-04-18T02:25:41.921Z,5.99
2023-04-18T02:28:09.253Z,6.01
2023-04-18T02:30:35.779Z,5.96
2023-04-18T02:33:02.312Z,6.14
2023-04-18T02:35:29.207Z,6.17
2023-04-18T02:37:55.790Z,6.18
2023-04-18T02:40:22.267Z,5.99
2023-04-18T02:42:48.630Z,6.09
2023-04-18T02:45:15.414Z,6.07
2023-04-18T02:47:53.834Z,5.99
2023-04-18T02:50:21.743Z,5.83
2023-04-18T02:52:48.467Z,5.97
2023-04-18T02:55:16.917Z,6.07
2023-04-18T02:57:44.546Z,6.30
2023-04-18T03:00:43.310Z,6.11
2023-04-18T03:03:28.384Z,6.15
2023-04-18T03:06:14.922Z,5.77
2023-04-18T03:08:41.777Z,5.56
2023-04-18T03:11:08.812Z,5.47
2023-04-18T03:13:35.902Z,5.63
2023-04-18T03:16:03.115Z,5.57
2023-04-18T03:18:31.574Z,5.49
2023-04-18T03:20:59.132Z,5.34
2023-04-18T03:23:27.271Z,5.41
2023-04-18T03:25:53.650Z,5.58
2023-04-18T03:28:20.450Z,5.36
2023-04-18T03:30:46.870Z,5.49
2023-04-18T03:33:14.792Z,5.29
2023-04-18T03:35:41.821Z,5.33
2023-04-18T03:38:08.321Z,5.30
2023-04-18T03:40:38.043Z,5.27
2023-04-18T03:43:11.669Z,5.18
2023-04-18T03:45:38.172Z,5.22
2023-04-18T03:48:05.425Z,5.16
2023-04-18T03:50:35.508Z,5.04
2023-04-18T03:53:04.153Z,5.04
2023-04-18T03:55:33.788Z,4.99
2023-04-18T03:58:01.651Z,4.97
2023-04-18T04:00:29.414Z,4.97
2023-04-18T04:03:02.051Z,4.92
2023-04-18T04:05:28.919Z,4.90
2023-04-18T04:07:55.394Z,4.88
2023-04-18T04:10:23.103Z,4.82
2023-04-18T04:12:50.461Z,4.74
2023-04-18T04:15:17.807Z,4.71
2023-04-18T04:17:52.563Z,4.70
2023-04-18T04:20:24.171Z,4.76
2023-04-18T04:22:58.664Z,4.77
2023-04-18T04:25:28.632Z,4.77
2023-04-18T04:27:57.508Z,4.76
2023-04-18T04:30:24.119Z,4.72
2023-04-18T04:32:51.097Z,4.86
2023-04-18T04:35:17.894Z,4.83
2023-04-18T04:37:45.123Z,5.00
2023-04-18T04:40:20.694Z,5.13
2023-04-18T04:42:56.151Z,5.29
2023-04-18T04:45:29.250Z,6.05
2023-04-18T04:47:55.806Z,6.92
2023-04-18T04:50:22.755Z,7.67
2023-04-18T04:52:49.846Z,8.54
2023-04-18T04:55:17.464Z,8.85
2023-04-18T04:57:44.929Z,9.36
2023-04-18T05:00:32.816Z,9.68
2023-04-18T05:02:59.896Z,10.46
2023-04-18T05:05:27.077Z,10.63
2023-04-18T05:07:54.184Z,10.78
2023-04-18T05:10:21.621Z,10.46
2023-04-18T05:12:48.051Z,10.95
2023-04-18T05:15:16.195Z,11.15
2023-04-18T05:17:42.763Z,11.97
2023-04-18T05:20:10.037Z,12.13
2023-04-18T05:22:36.665Z,12.00
2023-04-18T05:25:03.348Z,12.26
2023-04-18T05:27:29.812Z,11.81
2023-04-18T05:29:56.294Z,11.97
2023-04-18T05:32:22.811Z,12.61
2023-04-18T05:34:49.319Z,13.47
2023-04-18T05:37:15.809Z,14.40
2023-04-18T05:39:42.402Z,15.65
2023-04-18T05:42:08.855Z,14.74
2023-04-18T05:44:35.769Z,14.22
2023-04-18T05:47:02.317Z,14.57
2023-04-18T05:49:28.699Z,14.89
2023-04-18T05:51:56.451Z,14.89
2023-04-18T05:54:25.020Z,14.58
2023-04-18T05:56:51.752Z,14.84
2023-04-18T05:59:18.215Z,15.25
2023-04-18T06:01:44.649Z,16.14
2023-04-18T06:04:11.261Z,16.85
2023-04-18T06:06:38.140Z,15.88
2023-04-18T06:09:04.711Z,16.24
2023-04-18T06:11:33.569Z,15.95
2023-04-18T06:14:00.132Z,16.08
2023-04-18T06:16:27.040Z,17.18
2023-04-18T06:18:53.549Z,15.27
2023-04-18T06:21:20.384Z,15.68
2023-04-18T06:23:46.924Z,16.34
2023-04-18T06:26:13.381Z,15.20
2023-04-18T06:28:39.928Z,14.67
2023-04-18T06:31:06.321Z,13.36
2023-04-18T06:33:33.438Z,12.23
2023-04-18T06:35:59.910Z,11.34
2023-04-18T06:38:26.290Z,10.91
2023-04-18T06:40:52.886Z,11.25
2023-04-18T06:43:19.275Z,11.08
2023-04-18T06:45:45.877Z,11.65
2023-04-18T06:48:12.393Z,10.03
2023-04-18T06:50:38.961Z,10.26
2023-04-18T06:53:05.341Z,9.71
2023-04-18T06:55:31.824Z,9.67
2023-04-18T06:58:00.333Z,10.12
2023-04-18T07:00:26.912Z,9.92
2023-04-18T07:02:53.575Z,10.72
2023-04-18T07:05:20.150Z,11.08
2023-04-18T07:07:46.569Z,11.57
2023-04-18T07:10:13.051Z,11.33
2023-04-18T07:12:39.423Z,11.81
2023-04-18T07:15:06.414Z,11.62
2023-04-18T07:17:32.980Z,12.19
2023-04-18T07:19:59.695Z,12.74
2023-04-18T07:22:26.275Z,11.93
2023-04-18T07:24:52.693Z,12.31
2023-04-18T07:27:19.152Z,13.08
2023-04-18T07:29:45.725Z,13.28
2023-04-18T07:32:12.200Z,12.84
2023-04-18T07:34:40.232Z,12.63
2023-04-18T07:37:07.004Z,11.79
2023-04-18T07:39:35.975Z,11.76
2023-04-18T07:42:05.448Z,11.75
2023-04-18T07:44:31.978Z,11.64
2023-04-18T07:46:58.734Z,11.55
2023-04-18T07:49:25.433Z,10.59
2023-04-18T07:51:51.945Z,11.17
2023-04-18T07:54:18.373Z,11.13
2023-04-18T07:56:44.796Z,10.71
2023-04-18T07:59:11.451Z,10.84
2023-04-18T08:01:37.909Z,10.85
2023-04-18T08:04:04.625Z,11.38
2023-04-18T08:06:31.406Z,11.46
2023-04-18T08:08:59.040Z,10.94
2023-04-18T08:11:25.566Z,11.20
2023-04-18T08:13:51.970Z,11.34
2023-04-18T08:16:18.543Z,11.06
2023-04-18T08:18:45.064Z,11.00
2023-04-18T08:21:11.522Z,11.55
2023-04-18T08:23:38.039Z,12.46
2023-04-18T08:26:04.554Z,11.67
2023-04-18T08:28:30.981Z,11.95
2023-04-18T08:30:57.528Z,12.48
2023-04-18T08:33:24.472Z,12.30
2023-04-18T08:35:51.846Z,13.00
2023-04-18T08:38:19.084Z,13.34
2023-04-18T08:40:46.371Z,12.35
2023-04-18T08:43:15.001Z,13.27
2023-04-18T08:45:42.724Z,12.57
2023-04-18T08:48:16.701Z,13.35
2023-04-18T08:50:44.428Z,13.27
2023-04-18T08:53:11.298Z,12.94
2023-04-18T08:55:37.895Z,12.51
2023-04-18T08:58:07.024Z,13.33
2023-04-18T09:00:33.553Z,13.82
2023-04-18T09:03:00.123Z,13.77
2023-04-18T09:05:27.556Z,13.02
2023-04-18T09:07:56.107Z,12.50
2023-04-18T09:10:30.922Z,12.23
2023-04-18T09:12:58.910Z,12.33
2023-04-18T09:15:29.642Z,12.55
2023-04-18T09:17:58.591Z,13.06
2023-04-18T09:20:30.696Z,13.53
2023-04-18T09:23:00.662Z,12.81
2023-04-18T09:25:30.479Z,12.53
2023-04-18T09:28:02.042Z,13.10
2023-04-18T09:30:32.008Z,12.24
2023-04-18T09:33:04.446Z,11.94
2023-04-18T09:35:31.525Z,12.66
2023-04-18T09:37:57.982Z,12.68
2023-04-18T09:40:24.602Z,12.44
2023-04-18T09:42:55.602Z,13.12
2023-04-18T09:45:23.489Z,12.20
2023-04-18T09:47:50.985Z,12.55
2023-04-18T09:50:18.386Z,12.44
2023-04-18T09:52:45.738Z,12.25
2023-04-18T09:55:17.555Z,11.92
2023-04-18T09:57:48.543Z,12.45
2023-04-18T10:00:21.534Z,12.40
2023-04-18T10:02:52.363Z,12.90
2023-04-18T10:05:21.426Z,13.12
2023-04-18T10:07:49.858Z,13.14
2023-04-18T10:10:17.191Z,12.78
2023-04-18T10:12:44.680Z,13.01
2023-04-18T10:15:11.945Z,13.08
2023-04-18T10:18:09.575Z,13.29
2023-04-18T10:20:36.713Z,13.40
2023-04-18T10:23:31.230Z,13.26
2023-04-18T10:25:58.626Z,13.34
2023-04-18T10:28:26.509Z,13.47
2023-04-18T10:31:04.083Z,13.34
2023-04-18T10:33:42.392Z,13.45
2023-04-18T10:36:09.182Z,13.81
2023-04-18T10:38:45.153Z,13.01
2023-04-18T10:41:41.942Z,12.69
2023-04-18T10:44:08.856Z,13.53
2023-04-18T10:46:40.520Z,13.78
2023-04-18T10:49:25.166Z,14.02
2023-04-18T10:52:00.664Z,13.58
2023-04-18T10:54:54.299Z,12.78
2023-04-18T10:57:21.627Z,12.35
2023-04-18T10:59:50.339Z,12.69
2023-04-18T11:02:32.204Z,12.65
2023-04-18T11:05:01.466Z,12.88
2023-04-18T11:07:46.231Z,13.17
2023-04-18T11:10:16.163Z,12.88
2023-04-18T11:12:42.856Z,12.60
2023-04-18T11:15:10.789Z,12.88
2023-04-18T11:17:40.004Z,12.71
2023-04-18T11:20:12.651Z,12.21
2023-04-18T11:22:48.324Z,12.50
2023-04-18T11:25:20.261Z,12.55
2023-04-18T11:27:48.699Z,12.82
2023-04-18T11:30:15.628Z,13.28
2023-04-18T11:32:42.380Z,13.10
2023-04-18T11:35:10.984Z,13.37
2023-04-18T11:37:39.502Z,13.07
2023-04-18T11:40:08.395Z,13.15
2023-04-18T11:42:37.065Z,12.92
2023-04-18T11:45:03.871Z,13.29
2023-04-18T11:47:32.968Z,13.67
2023-04-18T11:50:02.227Z,14.16
2023-04-18T11:52:31.006Z,13.34
2023-04-18T11:55:30.217Z,13.00
2023-04-18T11:57:58.504Z,12.59
2023-04-18T12:00:41.599Z,12.95
2023-04-18T12:03:15.726Z,13.08
2023-04-18T12:05:42.730Z,13.12
2023-04-18T12:08:11.858Z,13.22
2023-04-18T12:10:46.377Z,13.45
2023-04-18T12:13:13.193Z,13.53
2023-04-18T12:15:41.113Z,13.57
2023-04-18T12:18:10.678Z,13.65
2023-04-18T12:20:46.680Z,13.57
2023-04-18T12:23:34.242Z,14.08
2023-04-18T12:26:01.882Z,13.64
2023-04-18T12:28:28.622Z,14.16
2023-04-18T12:30:55.836Z,14.32
2023-04-18T12:33:22.398Z,14.23
2023-04-18T12:35:49.663Z,14.45
2023-04-18T12:38:21.155Z,14.61
2023-04-18T12:40:48.153Z,14.28
2023-04-18T12:43:14.757Z,14.47
2023-04-18T12:45:41.296Z,14.31
2023-04-18T12:48:07.765Z,14.27
2023-04-18T12:50:34.502Z,14.25
2023-04-18T12:53:02.075Z,14.80
2023-04-18T12:55:29.179Z,14.96
2023-04-18T12:57:56.102Z,14.35
2023-04-18T13:00:23.896Z,15.31
2023-04-18T13:02:50.953Z,15.03
2023-04-18T13:05:19.901Z,15.09
2023-04-18T13:07:48.924Z,14.49
2023-04-18T13:10:20.413Z,14.51
2023-04-18T13:12:48.699Z,14.15
2023-04-18T13:15:16.131Z,14.21
2023-04-18T13:17:43.726Z,13.97
2023-04-18T13:20:12.362Z,13.63
2023-04-18T13:22:40.183Z,13.93
2023-04-18T13:25:08.206Z,14.01
2023-04-18T13:27:34.733Z,13.86
2023-04-18T13:30:01.320Z,13.62
2023-04-18T13:32:27.977Z,14.16
2023-04-18T13:34:56.069Z,13.62
2023-04-18T13:37:23.130Z,13.67
2023-04-18T13:39:49.644Z,13.44
2023-04-18T13:42:16.480Z,13.39
2023-04-18T13:44:42.941Z,13.31
2023-04-18T13:47:09.350Z,13.19
2023-04-18T13:49:36.401Z,13.49
2023-04-18T13:52:04.263Z,13.93
2023-04-18T13:54:32.122Z,13.57
2023-04-18T13:57:03.039Z,13.44
2023-04-18T13:59:31.638Z,13.24
2023-04-18T14:01:58.290Z,13.28
2023-04-18T14:04:25.077Z,13.54
2023-04-18T14:06:51.737Z,13.00
2023-04-18T14:09:18.118Z,13.01
2023-04-18T14:11:45.302Z,13.09
2023-04-18T14:14:11.808Z,12.96
2023-04-18T14:16:38.183Z,13.08
2023-04-18T14:19:04.841Z,12.54
2023-04-18T14:21:31.540Z,12.44
2023-04-18T14:23:58.187Z,12.82
2023-04-18T14:26:24.756Z,12.92
2023-04-18T14:28:51.293Z,12.53
2023-04-18T14:31:17.820Z,12.68
2023-04-18T14:33:44.722Z,12.66
2023-04-18T14:36:11.329Z,12.77
2023-04-18T14:38:37.985Z,12.71
2023-04-18T14:41:05.608Z,12.65
2023-04-18T14:43:32.302Z,12.40
2023-04-18T14:45:59.695Z,12.42
2023-04-18T14:48:27.156Z,12.37
2023-04-18T14:50:58.035Z,12.39
2023-04-18T14:53:24.946Z,12.11
2023-04-18T14:55:51.475Z,12.30
2023-04-18T14:58:17.849Z,12.58
2023-04-18T15:00:44.373Z,12.62
2023-04-18T15:03:11.470Z,12.52
2023-04-18T15:05:42.819Z,12.47
2023-04-18T15:08:11.004Z,12.55
2023-04-18T15:10:38.472Z,12.49
2023-04-18T15:13:05.023Z,12.42
2023-04-18T15:15:34.872Z,12.35
2023-04-18T15:18:02.447Z,12.28
2023-04-18T15:20:29.627Z,12.32
2023-04-18T15:22:56.898Z,12.49
2023-04-18T15:25:23.552Z,11.81
2023-04-18T15:27:50.125Z,11.75
2023-04-18T15:30:16.629Z,11.72
2023-04-18T15:32:44.102Z,11.90
2023-04-18T15:35:11.886Z,11.82
2023-04-18T15:37:38.400Z,11.90
2023-04-18T15:40:09.593Z,12.06
2023-04-18T15:42:36.350Z,11.79
2023-04-18T15:45:04.316Z,11.54
2023-04-18T15:47:33.660Z,11.74
2023-04-18T15:50:00.574Z,11.93
2023-04-18T15:52:27.950Z,11.74
2023-04-18T15:54:54.527Z,11.82
2023-04-18T15:57:21.733Z,11.65
2023-04-18T15:59:48.189Z,11.70
2023-04-18T16:02:14.986Z,11.88
2023-04-18T16:04:41.467Z,11.71
2023-04-18T16:07:08.783Z,11.55
2023-04-18T16:09:35.255Z,11.49
2023-04-18T16:12:03.201Z,11.64
2023-04-18T16:14:31.183Z,11.74
2023-04-18T16:16:58.827Z,11.61
2023-04-18T16:19:25.352Z,11.23
2023-04-18T16:21:51.844Z,11.65
2023-04-18T16:24:18.737Z,11.38
2023-04-18T16:26:45.251Z,11.33
2023-04-18T16:29:11.608Z,11.45
2023-04-18T16:31:38.302Z,11.67
2023-04-18T16:34:04.846Z,11.35
2023-04-18T16:36:32.745Z,11.41
2023-04-18T16:38:59.183Z,11.19
2023-04-18T16:41:25.658Z,11.21
2023-04-18T16:43:52.061Z,11.09
2023-04-18T16:46:19.152Z,11.25
2023-04-18T16:48:45.754Z,11.11
2023-04-18T16:51:13.124Z,11.09
2023-04-18T16:53:39.587Z,10.76
2023-04-18T16:56:08.112Z,10.77
2023-04-18T16:58:34.619Z,10.84
2023-04-18T17:01:01.891Z,10.55
2023-04-18T17:03:28.385Z,10.53
2023-04-18T17:05:55.691Z,10.50
2023-04-18T17:08:22.185Z,10.68
2023-04-18T17:10:51.025Z,10.66
2023-04-18T17:13:17.524Z,10.73
2023-04-18T17:15:43.990Z,10.85
2023-04-18T17:18:10.623Z,10.53
2023-04-18T17:20:37.205Z,10.66
2023-04-18T17:23:03.576Z,10.86
2023-04-18T17:25:30.128Z,10.56
2023-04-18T17:27:56.557Z,10.99
2023-04-18T17:30:23.169Z,10.64
2023-04-18T17:32:50.464Z,10.49
2023-04-18T17:35:17.090Z,10.09
2023-04-18T17:37:43.557Z,10.76
2023-04-18T17:40:11.564Z,10.57
2023-04-18T17:42:38.359Z,10.45
2023-04-18T17:45:06.629Z,10.70
2023-04-18T17:47:34.060Z,10.24
2023-04-18T17:50:00.855Z,10.35
2023-04-18T17:52:30.554Z,10.07
2023-04-18T17:54:57.297Z,10.30
2023-04-18T17:57:25.943Z,10.18
2023-04-18T17:59:52.586Z,10.25
2023-04-18T18:02:19.543Z,10.12
2023-04-18T18:04:47.001Z,9.92
2023-04-18T18:07:13.574Z,10.21
2023-04-18T18:09:41.593Z,10.08
2023-04-18T18:12:09.882Z,10.20
2023-04-18T18:14:36.527Z,9.84
2023-04-18T18:17:04.152Z,9.89
2023-04-18T18:19:30.757Z,9.84
2023-04-18T18:21:57.175Z,9.92
2023-04-18T18:24:25.590Z,9.79
2023-04-18T18:26:52.233Z,10.00
2023-04-18T18:29:19.315Z,9.64
2023-04-18T18:31:45.981Z,9.77
2023-04-18T18:34:12.607Z,9.71
2023-04-18T18:36:40.118Z,9.75
2023-04-18T18:39:06.949Z,9.82
2023-04-18T18:41:33.423Z,9.80
2023-04-18T18:43:59.934Z,9.90
2023-04-18T18:46:27.255Z,9.93
2023-04-18T18:48:53.778Z,10.19
2023-04-18T18:51:20.171Z,10.03
2023-04-18T18:53:46.708Z,10.12
2023-04-18T18:56:13.219Z,9.86
2023-04-18T18:58:40.396Z,9.68
2023-04-18T19:01:07.200Z,9.74
2023-04-18T19:03:34.776Z,9.98
2023-04-18T19:06:03.930Z,9.85
2023-04-18T19:08:30.956Z,9.67
2023-04-18T19:10:57.469Z,9.58
2023-04-18T19:13:24.211Z,9.70
2023-04-18T19:15:51.148Z,9.77
2023-04-18T19:18:19.859Z,9.58
2023-04-18T19:20:46.924Z,9.62
2023-04-18T19:23:13.515Z,9.50
2023-04-18T19:25:40.100Z,9.38
2023-04-18T19:28:06.657Z,9.62
2023-04-18T19:30:33.048Z,9.76
2023-04-18T19:32:59.605Z,9.80
2023-04-18T19:35:26.088Z,9.53
2023-04-18T19:37:55.765Z,9.59
2023-04-18T19:40:23.694Z,9.45
2023-04-18T19:42:50.168Z,9.88
2023-04-18T19:45:16.676Z,9.97
2023-04-18T19:47:44.293Z,10.10
2023-04-18T19:50:11.444Z,9.71
2023-04-18T19:52:37.901Z,9.32
2023-04-18T19:55:04.531Z,9.55
2023-04-18T19:57:31.148Z,9.88
2023-04-18T19:59:57.571Z,9.29
2023-04-18T20:02:24.317Z,9.24
2023-04-18T20:04:51.169Z,9.32
2023-04-18T20:07:17.895Z,9.30
2023-04-18T20:09:44.285Z,9.52
2023-04-18T20:12:10.814Z,9.38
2023-04-18T20:14:37.234Z,9.24
2023-04-18T20:17:03.763Z,9.27
2023-04-18T20:19:30.202Z,9.15
2023-04-18T20:21:56.918Z,9.14
2023-04-18T20:24:23.782Z,9.18
2023-04-18T20:26:51.340Z,9.69
2023-04-18T20:29:17.852Z,9.38
2023-04-18T20:31:44.356Z,9.43
2023-04-18T20:34:11.007Z,9.36
2023-04-18T20:36:41.461Z,9.29
2023-04-18T20:39:12.724Z,9.39
2023-04-18T20:41:49.099Z,9.17
2023-04-18T20:44:16.868Z,9.21
2023-04-18T20:46:43.386Z,9.71
2023-04-18T20:49:10.010Z,9.41
2023-04-18T20:51:37.075Z,9.20
2023-04-18T20:54:04.538Z,9.19
2023-04-18T20:56:32.046Z,9.21
2023-04-18T20:58:58.517Z,9.31
2023-04-18T21:01:25.183Z,9.18
2023-04-18T21:03:51.746Z,9.11
2023-04-18T21:06:21.939Z,9.16
2023-04-18T21:08:48.806Z,9.12
2023-04-18T21:11:15.359Z,9.01
2023-04-18T21:13:41.750Z,9.16
2023-04-18T21:16:10.220Z,9.28
2023-04-18T21:18:37.136Z,9.38
2023-04-18T21:21:04.256Z,9.45
2023-04-18T21:23:30.727Z,9.19
2023-04-18T21:25:57.076Z,9.30
2023-04-18T21:28:23.590Z,9.04
2023-04-18T21:30:49.959Z,9.24
2023-04-18T21:33:16.569Z,9.14
2023-04-18T21:35:43.023Z,8.88
2023-04-18T21:38:09.438Z,8.94
2023-04-18T21:40:37.304Z,9.00
2023-04-18T21:43:03.813Z,8.95
2023-04-18T21:45:30.408Z,9.01
2023-04-18T21:47:56.912Z,8.76
2023-04-18T21:50:23.428Z,9.11
2023-04-18T21:52:49.941Z,8.87
2023-04-18T21:55:17.407Z,8.87
2023-04-18T21:57:43.926Z,8.88
2023-04-18T22:17:32.350Z,8.09
2023-04-18T22:19:59.569Z,8.25
2023-04-18T22:22:26.118Z,8.45
2023-04-18T22:24:52.557Z,8.75
2023-04-18T22:27:19.082Z,8.76
2023-04-18T22:29:45.485Z,8.77
2023-04-18T22:32:12.009Z,8.71
2023-04-18T22:34:38.485Z,8.73
2023-04-18T22:37:06.071Z,9.11
2023-04-18T22:39:32.550Z,8.64
2023-04-18T22:41:58.957Z,8.74
2023-04-18T22:44:25.454Z,8.68
2023-04-18T22:46:54.571Z,8.52
2023-04-18T22:49:22.193Z,8.83
2023-04-18T22:51:49.555Z,8.86
2023-04-18T22:54:16.203Z,8.63
2023-04-18T22:56:42.878Z,8.59
2023-04-18T22:59:09.404Z,8.50
2023-04-18T23:01:36.004Z,8.59
2023-04-18T23:04:02.761Z,8.83
2023-04-18T23:06:29.984Z,8.51
2023-04-18T23:08:56.568Z,8.46
2023-04-18T23:11:23.099Z,8.45
2023-04-18T23:13:49.500Z,8.54
2023-04-18T23:16:16.318Z,8.33
2023-04-18T23:18:42.795Z,8.43
2023-04-18T23:21:09.211Z,8.82
2023-04-18T23:23:35.760Z,8.48
2023-04-18T23:26:02.166Z,8.81
2023-04-18T23:28:28.773Z,8.48
2023-04-18T23:30:55.560Z,8.43
2023-04-18T23:33:22.349Z,8.33
2023-04-18T23:35:48.852Z,8.44
2023-04-18T23:38:15.384Z,8.29
2023-04-18T23:40:41.893Z,8.43
2023-04-18T23:43:08.321Z,8.29
2023-04-18T23:45:34.803Z,8.53
2023-04-18T23:48:02.354Z,8.30
2023-04-18T23:50:28.961Z,8.30
2023-04-18T23:52:55.458Z,8.48
2023-04-18T23:55:22.025Z,8.38
2023-04-18T23:57:48.643Z,8.67
